Accueil
METAR-TAF:

METAR-TAF

Aéroports :

Niamey, Niger

Aéroport international Diori Hamani

latitude: 13-29N, longitude: 002-10E, altitude: 223 m

Observation

Le bulletin a été fait il y a 51 minutes, à 01:00 UTC
Vent 2 kt de sud/sud-ouest
Température 26°C
Humidité 79%
Pression 1011 hPa
Visibilité 10 km ou plus
pas de nuages en-dessous de 1500 mètres et pas de cumulonimbus.

METAR: DRRN 190100Z 21002KT CAVOK 26/22 Q1011 NOSIG

Heure: 02:51 (01:51 UTC)

Prévision

Le bulletin a été fait il y a 2 heures et 51 minutes, à 23:00 UTC
Prévision valable du 19 à 00 UTC au 20 à 06 UTC
Vent 6 kt de sud
Visibilité 10 km ou plus
pas de nuages en-dessous de 1500 mètres et pas de cumulonimbus.
Probabilité 30% :
Temporairement
du 19 à 14 UTC au 19 à 20 UTC
Visibilité: 4000 m
Nuages épars à une hauteur de 2000 ft
Quelques nuages à une hauteur de 2600 ft, Cumulonimbus.

TAF: DRRN 182300Z 1900/2006 18006KT CAVOK PROB30 TEMPO 1914/1920 4000 TSSHRA SCT020 FEW026CB

Observations et prévisions météorologiques de plus de 4000 aéroports (messages METAR et TAF).

Les stations disponibles sont représentées par des disques jaunes et rouges sur la carte.

Passer la souris dessus pour voir le nom de la station.

Cliquer dessus pour voir les observations et prévisions météorologiques.

Pour changer de carte: cliquez sur les boutons verts avec une croix noire pour zoomer, sur le bouton vert avec un tiret pour effectuer un zoom arrière, ou sur les flèches vertes pour les cartes adjacentes.


METAR-TAF: